Time;durP1;ratioP1;P1;durP2;ratioP2;P2;SDS_P1;SDS_P2;PMS_P1;PMS_P2;Temp;Humidity;BMP_temperature;BMP_pressure;BME280_temperature;BME280_humidity;BME280_pressure;Samples;Min_cycle;Max_cycle;Signal;HPM_P1;HPM_P2
2021/07/09 00:00:53;;;;;;;2.13;1.30;;;22.10;61.70;;;;;;5034256;28;20397;-76
2021/07/09 00:03:19;;;;;;;5.72;2.20;;;22.10;61.70;;;;;;5034239;28;20017;-76
2021/07/09 00:05:44;;;;;;;3.67;1.60;;;22.10;61.80;;;;;;5034383;28;20033;-76
2021/07/09 00:08:10;;;;;;;3.80;1.70;;;22.10;61.70;;;;;;5033436;28;20100;-75
2021/07/09 00:10:35;;;;;;;3.72;1.50;;;22.10;61.70;;;;;;5033920;28;20029;-75
2021/07/09 00:13:01;;;;;;;4.07;1.77;;;22.10;61.80;;;;;;5033500;28;20018;-75
2021/07/09 00:15:26;;;;;;;4.50;1.63;;;22.10;61.70;;;;;;5033218;28;20033;-75
2021/07/09 00:17:52;;;;;;;3.88;1.75;;;22.10;61.70;;;;;;5033303;28;20033;-75
2021/07/09 00:20:17;;;;;;;2.80;1.63;;;22.10;61.70;;;;;;5036794;28;20461;-75
2021/07/09 00:22:43;;;;;;;3.35;1.88;;;22.10;61.80;;;;;;5036605;28;20025;-75
2021/07/09 00:25:09;;;;;;;3.67;1.70;;;22.10;61.70;;;;;;5033774;28;20437;-75
2021/07/09 00:27:35;;;;;;;4.40;1.98;;;22.10;61.70;;;;;;5033404;28;20041;-75
2021/07/09 00:30:00;;;;;;;3.33;1.80;;;22.10;61.80;;;;;;5033438;28;20081;-75
2021/07/09 00:32:26;;;;;;;4.10;1.80;;;22.00;61.80;;;;;;5033181;28;20128;-75
2021/07/09 00:34:51;;;;;;;3.65;1.50;;;22.10;61.80;;;;;;5033019;28;20469;-75
2021/07/09 00:37:17;;;;;;;3.78;1.73;;;22.10;61.80;;;;;;5033090;28;20036;-75
2021/07/09 00:39:42;;;;;;;4.18;1.60;;;22.10;61.70;;;;;;5033104;28;20034;-75
2021/07/09 00:42:08;;;;;;;4.28;1.50;;;22.00;61.70;;;;;;5032965;28;20030;-75
2021/07/09 00:44:34;;;;;;;4.28;1.92;;;22.00;61.80;;;;;;5033039;28;20108;-75
2021/07/09 00:47:00;;;;;;;3.47;1.80;;;22.10;61.80;;;;;;5032977;28;20038;-75
2021/07/09 00:49:25;;;;;;;3.28;1.60;;;22.10;61.80;;;;;;5032864;28;20466;-75
2021/07/09 00:51:51;;;;;;;3.80;1.88;;;22.00;61.80;;;;;;5032649;28;20552;-76
2021/07/09 00:54:16;;;;;;;3.78;1.48;;;22.10;61.80;;;;;;5032955;28;20425;-76
2021/07/09 00:56:43;;;;;;;3.40;1.52;;;22.00;61.90;;;;;;5032870;28;20034;-76
2021/07/09 00:59:13;;;;;;;2.80;1.65;;;22.00;61.90;;;;;;5032636;28;20037;-75
2021/07/09 01:01:39;;;;;;;3.28;1.60;;;22.00;61.90;;;;;;5032736;28;20457;-75
2021/07/09 01:04:05;;;;;;;3.75;1.80;;;22.00;61.90;;;;;;5033014;28;20088;-75
2021/07/09 01:06:31;;;;;;;4.55;2.25;;;22.00;61.90;;;;;;5032642;28;20022;-75
2021/07/09 01:08:56;;;;;;;3.35;1.70;;;22.00;61.90;;;;;;5032641;28;20032;-75
2021/07/09 01:11:24;;;;;;;4.85;1.60;;;22.00;62.00;;;;;;5033041;28;20049;-75
2021/07/09 01:13:50;;;;;;;2.70;1.50;;;22.00;62.00;;;;;;5033367;28;20227;-75
2021/07/09 01:16:16;;;;;;;2.50;1.50;;;22.00;61.90;;;;;;5033069;28;20026;-75
2021/07/09 01:18:43;;;;;;;4.57;1.90;;;22.00;62.00;;;;;;5032975;28;20037;-75
2021/07/09 01:21:09;;;;;;;5.30;1.75;;;22.00;62.00;;;;;;5032900;28;20091;-75
2021/07/09 01:23:37;;;;;;;2.47;1.42;;;22.00;61.90;;;;;;5032941;28;20028;-76
2021/07/09 01:26:04;;;;;;;2.50;1.35;;;22.00;62.00;;;;;;5032692;28;20028;-75
2021/07/09 01:28:29;;;;;;;3.65;1.50;;;22.00;62.00;;;;;;5032825;28;20108;-75
2021/07/09 01:30:55;;;;;;;3.20;1.60;;;22.00;62.00;;;;;;5032621;28;20509;-76
2021/07/09 01:33:20;;;;;;;3.72;1.30;;;22.00;62.00;;;;;;5032544;28;20045;-76
2021/07/09 01:35:46;;;;;;;3.70;1.60;;;22.00;62.00;;;;;;5032556;28;20025;-75
2021/07/09 01:38:11;;;;;;;3.25;1.70;;;22.00;62.10;;;;;;5032568;28;20033;-75
2021/07/09 01:40:38;;;;;;;4.78;1.85;;;22.00;62.00;;;;;;5031314;28;20484;-75
2021/07/09 01:43:05;;;;;;;4.68;1.65;;;22.00;62.00;;;;;;5032577;28;20440;-75
2021/07/09 01:45:31;;;;;;;4.32;1.70;;;22.00;62.00;;;;;;5032548;28;20022;-75
2021/07/09 01:47:57;;;;;;;5.35;1.60;;;22.00;62.00;;;;;;5034293;28;20115;-75
2021/07/09 01:50:24;;;;;;;2.40;1.45;;;22.00;62.00;;;;;;5036184;28;20472;-75
2021/07/09 01:52:50;;;;;;;3.92;1.63;;;22.00;62.10;;;;;;5036456;28;20036;-75
2021/07/09 01:55:16;;;;;;;2.42;1.38;;;22.00;62.10;;;;;;5041943;28;20057;-75
2021/07/09 01:57:43;;;;;;;3.38;1.73;;;22.00;62.00;;;;;;5035937;28;20100;-76
2021/07/09 02:00:14;;;;;;;3.72;1.60;;;22.00;62.00;;;;;;5036302;28;20091;-75
2021/07/09 02:02:41;;;;;;;3.05;1.70;;;22.00;62.10;;;;;;5051237;28;20037;-75
2021/07/09 02:05:10;;;;;;;3.30;1.60;;;22.00;62.10;;;;;;5035945;28;20029;-76
2021/07/09 02:07:37;;;;;;;3.83;1.70;;;22.00;62.10;;;;;;5035599;28;20033;-75
2021/07/09 02:10:05;;;;;;;4.00;1.65;;;22.00;62.10;;;;;;5035689;28;20022;-75
2021/07/09 02:12:31;;;;;;;3.47;1.75;;;22.00;62.10;;;;;;5035744;28;20541;-75
2021/07/09 02:15:11;;;;;;;3.92;2.00;;;22.00;62.10;;;;;;5034463;28;20061;-76
2021/07/09 02:17:37;;;;;;;6.97;2.03;;;22.00;62.10;;;;;;5035351;28;20018;-76
2021/07/09 02:20:05;;;;;;;3.08;1.83;;;22.00;62.10;;;;;;5035512;28;20032;-75
2021/07/09 02:22:30;;;;;;;3.58;1.65;;;21.90;62.10;;;;;;5035392;28;20032;-75
2021/07/09 02:24:56;;;;;;;3.38;1.52;;;21.90;62.10;;;;;;5035750;28;20030;-75
2021/07/09 02:27:22;;;;;;;4.07;1.42;;;21.90;62.10;;;;;;5035421;28;20022;-75
2021/07/09 02:29:48;;;;;;;2.95;1.40;;;21.90;62.10;;;;;;5035387;28;20037;-75
2021/07/09 02:32:14;;;;;;;2.80;1.58;;;22.00;62.10;;;;;;5035364;28;20022;-75
2021/07/09 02:34:40;;;;;;;2.85;1.40;;;21.90;62.10;;;;;;5035417;28;20025;-75
2021/07/09 02:37:07;;;;;;;2.78;1.50;;;22.00;62.10;;;;;;5035162;28;20022;-75
2021/07/09 02:39:33;;;;;;;3.90;1.67;;;22.00;62.10;;;;;;5035184;28;20374;-75
2021/07/09 02:41:59;;;;;;;3.17;1.63;;;22.00;62.10;;;;;;5035250;28;20104;-75
2021/07/09 02:44:26;;;;;;;4.03;1.52;;;21.90;62.10;;;;;;5034957;28;20036;-76
2021/07/09 02:46:52;;;;;;;3.33;1.45;;;22.00;62.10;;;;;;5035125;28;20430;-75
2021/07/09 02:49:19;;;;;;;4.85;1.80;;;22.00;62.10;;;;;;5034987;28;20026;-76
2021/07/09 02:51:45;;;;;;;3.88;1.83;;;21.90;62.20;;;;;;5035940;28;20108;-75
2021/07/09 02:54:11;;;;;;;3.97;1.70;;;21.90;62.20;;;;;;5035326;28;20495;-75
2021/07/09 02:56:36;;;;;;;2.40;1.35;;;21.90;62.20;;;;;;5035280;28;20511;-75
2021/07/09 02:59:02;;;;;;;3.40;1.67;;;21.90;62.10;;;;;;5035086;28;20404;-76
2021/07/09 03:01:28;;;;;;;3.83;1.60;;;21.90;62.20;;;;;;5035459;28;20384;-75
2021/07/09 03:03:54;;;;;;;3.45;1.85;;;21.90;62.20;;;;;;5035153;28;20381;-75
2021/07/09 03:06:23;;;;;;;2.80;1.58;;;22.00;62.20;;;;;;5035311;28;20022;-75
2021/07/09 03:08:49;;;;;;;3.78;1.70;;;21.90;62.20;;;;;;5034725;28;20030;-76
2021/07/09 03:11:16;;;;;;;4.47;2.03;;;21.90;62.20;;;;;;5034736;28;20474;-75
2021/07/09 03:13:42;;;;;;;4.05;1.67;;;21.90;62.20;;;;;;5034418;28;20021;-75
2021/07/09 03:16:07;;;;;;;3.15;1.60;;;22.00;62.20;;;;;;5034392;28;20022;-75
2021/07/09 03:18:33;;;;;;;3.90;1.70;;;21.90;62.30;;;;;;5034397;28;20037;-75
2021/07/09 03:20:59;;;;;;;3.17;1.60;;;21.90;62.30;;;;;;5034163;28;20104;-75
2021/07/09 03:23:24;;;;;;;3.55;1.60;;;21.90;62.30;;;;;;5034257;28;20036;-75
2021/07/09 03:25:50;;;;;;;3.15;1.70;;;21.90;62.30;;;;;;5034105;28;20029;-75
2021/07/09 03:28:15;;;;;;;2.72;1.45;;;21.90;62.30;;;;;;5034047;28;20025;-75
2021/07/09 03:30:42;;;;;;;4.47;1.70;;;21.90;62.30;;;;;;5034253;28;20014;-75
2021/07/09 03:33:08;;;;;;;3.15;1.60;;;21.90;62.30;;;;;;5034077;28;20105;-75
2021/07/09 03:35:34;;;;;;;3.45;1.77;;;21.90;62.30;;;;;;5034060;28;20079;-75
2021/07/09 03:37:59;;;;;;;2.65;1.60;;;21.90;62.40;;;;;;5033984;28;20509;-76
2021/07/09 03:40:25;;;;;;;3.70;1.77;;;21.90;62.30;;;;;;5034038;28;20393;-76
2021/07/09 03:42:51;;;;;;;3.85;1.85;;;21.80;62.40;;;;;;5039518;28;20494;-75
2021/07/09 03:45:19;;;;;;;4.93;1.77;;;21.80;62.40;;;;;;5032689;28;20021;-76
2021/07/09 03:47:45;;;;;;;3.15;1.70;;;21.80;62.40;;;;;;5034372;28;20033;-76
2021/07/09 03:50:11;;;;;;;4.57;1.77;;;21.80;62.40;;;;;;5042138;28;20105;-76
2021/07/09 03:52:37;;;;;;;3.90;1.63;;;21.80;62.40;;;;;;5045061;28;20060;-77
2021/07/09 03:55:04;;;;;;;3.78;1.60;;;21.90;62.40;;;;;;5044831;28;20025;-76
2021/07/09 03:57:30;;;;;;;3.00;1.50;;;21.80;62.40;;;;;;5044223;28;20091;-76
2021/07/09 03:59:55;;;;;;;2.72;1.60;;;21.80;62.40;;;;;;5044933;28;20116;-76
2021/07/09 04:02:21;;;;;;;3.00;1.50;;;21.80;62.50;;;;;;5047126;28;20030;-75
2021/07/09 04:04:46;;;;;;;2.47;1.48;;;21.80;62.50;;;;;;5043776;28;20465;-76
2021/07/09 04:07:12;;;;;;;2.85;1.60;;;21.80;62.40;;;;;;5046067;28;20045;-75
2021/07/09 04:09:37;;;;;;;7.45;1.70;;;21.80;62.50;;;;;;5050401;28;20051;-75
2021/07/09 04:12:03;;;;;;;4.28;2.13;;;21.80;62.50;;;;;;5040110;28;20568;-76
2021/07/09 04:14:28;;;;;;;2.67;1.50;;;21.80;62.50;;;;;;5033327;28;20485;-76
2021/07/09 04:16:54;;;;;;;2.85;1.40;;;21.80;62.40;;;;;;5035626;28;20385;-75
2021/07/09 04:19:19;;;;;;;3.58;1.50;;;21.80;62.50;;;;;;5033220;28;20049;-76
2021/07/09 04:21:45;;;;;;;2.03;0.98;;;21.80;62.50;;;;;;5033355;28;20169;-76
2021/07/09 04:24:11;;;;;;;3.60;1.70;;;21.80;62.50;;;;;;5033195;28;20056;-75
2021/07/09 04:26:36;;;;;;;3.40;1.75;;;21.70;62.50;;;;;;5033075;28;20021;-75
2021/07/09 04:29:03;;;;;;;4.15;2.00;;;21.80;62.50;;;;;;5032894;28;20025;-76
2021/07/09 04:31:29;;;;;;;2.78;1.38;;;21.80;62.50;;;;;;5032814;28;20108;-75
2021/07/09 04:33:55;;;;;;;2.70;1.38;;;21.80;62.50;;;;;;5032909;28;20577;-75
2021/07/09 04:36:20;;;;;;;2.45;1.45;;;21.80;62.50;;;;;;5033140;28;20021;-75
2021/07/09 04:38:46;;;;;;;3.05;1.92;;;21.80;62.50;;;;;;5032679;28;20033;-75
2021/07/09 04:41:12;;;;;;;3.20;1.60;;;21.80;62.40;;;;;;5032920;28;20531;-76
2021/07/09 04:43:40;;;;;;;3.22;1.63;;;21.80;62.50;;;;;;5032895;28;20518;-75
2021/07/09 04:46:06;;;;;;;4.85;1.80;;;21.80;62.50;;;;;;5032852;28;20063;-75
2021/07/09 04:48:33;;;;;;;2.80;1.70;;;21.80;62.50;;;;;;5033051;28;20065;-76
2021/07/09 04:51:01;;;;;;;2.88;1.50;;;21.80;62.50;;;;;;5031753;28;20052;-75
2021/07/09 04:53:27;;;;;;;4.13;1.60;;;21.80;62.50;;;;;;5032872;28;20033;-75
2021/07/09 04:55:52;;;;;;;3.20;1.65;;;21.80;62.50;;;;;;5032884;28;20021;-75
2021/07/09 04:58:18;;;;;;;3.80;1.60;;;21.80;62.50;;;;;;5032703;28;20084;-76
2021/07/09 05:00:43;;;;;;;4.00;1.80;;;21.80;62.50;;;;;;5032809;28;20030;-75
2021/07/09 05:03:09;;;;;;;2.72;1.50;;;21.80;62.40;;;;;;5032825;28;20144;-75
2021/07/09 05:05:34;;;;;;;4.38;2.00;;;21.80;62.50;;;;;;5032787;28;20108;-75
2021/07/09 05:08:00;;;;;;;3.70;1.63;;;21.80;62.50;;;;;;5032949;28;20453;-74
2021/07/09 05:10:26;;;;;;;2.55;1.40;;;21.80;62.50;;;;;;5032851;28;20030;-75
2021/07/09 05:12:51;;;;;;;2.38;1.60;;;21.80;62.50;;;;;;5032746;28;20022;-76
2021/07/09 05:15:17;;;;;;;3.78;1.85;;;21.80;62.50;;;;;;5032717;28;20465;-75
2021/07/09 05:17:43;;;;;;;2.97;1.52;;;21.80;62.50;;;;;;5032570;28;20114;-75
2021/07/09 05:20:09;;;;;;;2.42;1.40;;;21.80;62.50;;;;;;5032715;28;20025;-76
2021/07/09 05:22:35;;;;;;;4.57;1.85;;;21.80;62.50;;;;;;5033596;28;20021;-75
2021/07/09 05:25:00;;;;;;;2.58;1.70;;;21.80;62.60;;;;;;5036730;28;20026;-76
2021/07/09 05:27:31;;;;;;;2.58;1.30;;;21.80;62.50;;;;;;5036528;28;20021;-76
2021/07/09 05:29:56;;;;;;;3.08;1.63;;;21.80;62.50;;;;;;5036629;28;20030;-76
2021/07/09 05:32:25;;;;;;;3.13;1.70;;;21.80;62.50;;;;;;5036118;28;20480;-76
2021/07/09 05:34:51;;;;;;;3.70;1.73;;;21.80;62.50;;;;;;5036063;28;20493;-76
2021/07/09 05:37:17;;;;;;;2.85;1.55;;;21.80;62.60;;;;;;5036532;28;20088;-76
2021/07/09 05:39:43;;;;;;;3.08;1.70;;;21.80;62.50;;;;;;5036150;28;20033;-75
2021/07/09 05:42:09;;;;;;;3.20;1.58;;;21.80;62.60;;;;;;5036382;28;20113;-75
2021/07/09 05:44:34;;;;;;;2.42;1.50;;;21.80;62.50;;;;;;5036147;28;20029;-76
2021/07/09 05:47:00;;;;;;;3.38;1.55;;;21.80;62.50;;;;;;5035974;28;20176;-76
2021/07/09 05:49:25;;;;;;;4.45;1.80;;;21.80;62.50;;;;;;5035982;28;20030;-75
2021/07/09 05:51:51;;;;;;;3.20;1.67;;;21.80;62.60;;;;;;5035895;28;20109;-75
2021/07/09 05:54:16;;;;;;;3.60;1.73;;;21.80;62.50;;;;;;5035805;28;20465;-75
2021/07/09 05:56:42;;;;;;;3.30;1.50;;;21.80;62.50;;;;;;5035753;28;20029;-75
2021/07/09 05:59:08;;;;;;;4.00;1.60;;;21.80;62.50;;;;;;5035517;28;20041;-75
2021/07/09 06:01:33;;;;;;;2.40;1.30;;;21.80;62.60;;;;;;5035969;28;20021;-75
2021/07/09 06:03:59;;;;;;;3.13;1.63;;;21.80;62.40;;;;;;5035737;28;20025;-75
2021/07/09 06:06:24;;;;;;;2.75;1.50;;;21.80;62.50;;;;;;5035696;28;20112;-75
2021/07/09 06:08:50;;;;;;;3.00;1.65;;;21.80;62.50;;;;;;5035818;28;20252;-75
2021/07/09 06:11:16;;;;;;;2.40;1.40;;;21.80;62.40;;;;;;5035616;28;20018;-75
2021/07/09 06:13:41;;;;;;;3.28;1.65;;;21.80;62.30;;;;;;5035675;28;20049;-75
2021/07/09 06:16:07;;;;;;;3.63;1.80;;;21.80;62.40;;;;;;5035542;28;20551;-76
2021/07/09 06:18:33;;;;;;;2.53;1.50;;;21.80;62.30;;;;;;5035294;28;20033;-75
2021/07/09 06:20:58;;;;;;;3.53;1.77;;;21.80;62.30;;;;;;5035467;28;20037;-75
2021/07/09 06:23:24;;;;;;;3.08;1.50;;;21.80;62.20;;;;;;5035372;28;20041;-76
2021/07/09 06:25:50;;;;;;;3.17;1.40;;;21.90;62.20;;;;;;5035378;28;20452;-75
2021/07/09 06:28:16;;;;;;;3.00;1.50;;;21.90;62.20;;;;;;5035126;28;20029;-75
2021/07/09 06:30:41;;;;;;;2.85;1.60;;;21.80;62.20;;;;;;5035250;28;20025;-76
2021/07/09 06:33:08;;;;;;;5.10;1.85;;;21.80;62.20;;;;;;5034600;28;20111;-76
2021/07/09 06:35:35;;;;;;;3.45;1.55;;;21.90;62.20;;;;;;5035192;28;20037;-76
2021/07/09 06:38:01;;;;;;;3.30;1.55;;;21.80;62.20;;;;;;5035065;28;20056;-75
2021/07/09 06:40:27;;;;;;;4.25;1.67;;;21.90;62.10;;;;;;5035107;28;20469;-75
2021/07/09 06:42:54;;;;;;;3.60;1.45;;;21.90;62.10;;;;;;5035356;28;20117;-75
2021/07/09 06:45:20;;;;;;;4.65;1.60;;;21.90;62.10;;;;;;5035063;28;20473;-76
2021/07/09 06:47:45;;;;;;;3.78;1.90;;;21.90;62.10;;;;;;5045454;28;20025;-75
2021/07/09 06:50:13;;;;;;;5.40;2.63;;;21.90;62.20;;;;;;5037123;28;20465;-75
2021/07/09 06:52:40;;;;;;;2.30;1.50;;;21.90;62.20;;;;;;5035057;28;20080;-75
2021/07/09 06:55:06;;;;;;;3.88;1.58;;;21.90;62.10;;;;;;5034913;28;20580;-75
2021/07/09 06:57:32;;;;;;;4.13;1.77;;;21.90;62.10;;;;;;5034607;28;20117;-75
2021/07/09 06:59:57;;;;;;;4.15;1.75;;;21.90;62.10;;;;;;5034840;28;20490;-75
2021/07/09 07:02:23;;;;;;;2.35;1.63;;;21.90;62.10;;;;;;5034589;28;20033;-75
2021/07/09 07:04:50;;;;;;;4.00;1.70;;;21.90;62.20;;;;;;5034502;28;20096;-75
2021/07/09 07:07:16;;;;;;;3.15;1.88;;;22.00;62.10;;;;;;5034551;28;20109;-75
2021/07/09 07:09:42;;;;;;;4.22;1.92;;;21.90;62.10;;;;;;5034435;28;20029;-75
2021/07/09 07:12:08;;;;;;;2.58;1.48;;;21.90;62.10;;;;;;5034538;28;20393;-76
2021/07/09 07:14:35;;;;;;;4.00;1.98;;;22.00;62.20;;;;;;5034535;28;20043;-75
2021/07/09 07:17:01;;;;;;;4.45;1.85;;;21.90;62.20;;;;;;5034217;28;20515;-76
2021/07/09 07:19:26;;;;;;;2.92;1.65;;;21.90;62.20;;;;;;5034030;28;20038;-75
2021/07/09 07:21:53;;;;;;;2.30;1.52;;;21.90;62.20;;;;;;5034236;28;20025;-75
2021/07/09 07:24:19;;;;;;;3.20;1.40;;;21.90;62.20;;;;;;5034356;28;20036;-75
2021/07/09 07:26:45;;;;;;;3.30;1.63;;;21.90;62.20;;;;;;5033953;28;20100;-75
2021/07/09 07:29:10;;;;;;;2.90;1.67;;;22.00;62.20;;;;;;5033892;28;20109;-75
2021/07/09 07:31:36;;;;;;;4.00;1.90;;;22.00;62.20;;;;;;5033821;28;20022;-76
2021/07/09 07:34:02;;;;;;;3.22;1.88;;;21.90;62.20;;;;;;5032374;28;20053;-76
2021/07/09 07:36:27;;;;;;;2.58;1.60;;;22.00;62.20;;;;;;5033846;28;20104;-76
2021/07/09 07:38:53;;;;;;;2.95;1.67;;;21.90;62.30;;;;;;5033568;28;20456;-76
2021/07/09 07:41:20;;;;;;;3.50;1.75;;;22.00;62.20;;;;;;5033785;28;20041;-75
2021/07/09 07:43:46;;;;;;;3.15;1.70;;;22.00;62.20;;;;;;5032221;28;20052;-76
2021/07/09 07:46:13;;;;;;;3.85;1.83;;;21.90;62.20;;;;;;5032594;28;20025;-76
2021/07/09 07:48:39;;;;;;;3.10;1.95;;;21.90;62.20;;;;;;5033535;28;20104;-74
2021/07/09 07:51:05;;;;;;;3.55;1.90;;;21.90;62.20;;;;;;5033541;28;20076;-75
2021/07/09 07:53:37;;;;;;;3.78;2.00;;;22.00;62.20;;;;;;5033507;28;20113;-76
2021/07/09 07:56:03;;;;;;;3.85;1.77;;;22.00;62.20;;;;;;5033470;28;20021;-75
2021/07/09 07:58:29;;;;;;;3.47;1.70;;;22.00;62.20;;;;;;5033399;28;20037;-75
2021/07/09 08:00:55;;;;;;;5.75;2.47;;;22.00;62.20;;;;;;5032904;28;20484;-74
2021/07/09 08:03:21;;;;;;;2.65;1.58;;;22.00;62.20;;;;;;5033261;28;20033;-76
2021/07/09 08:05:46;;;;;;;2.78;1.80;;;22.00;62.20;;;;;;5033509;28;20022;-76
2021/07/09 08:08:12;;;;;;;3.75;2.30;;;22.00;62.20;;;;;;5033310;28;20424;-75
2021/07/09 08:10:38;;;;;;;2.95;1.75;;;22.00;62.20;;;;;;5033270;28;20033;-75
2021/07/09 08:13:03;;;;;;;2.97;1.77;;;22.00;62.10;;;;;;5033286;28;20029;-75
2021/07/09 08:15:29;;;;;;;5.82;1.85;;;22.00;62.20;;;;;;5033199;28;20057;-76
2021/07/09 08:17:54;;;;;;;2.80;1.63;;;22.00;62.20;;;;;;5032901;28;20036;-74
2021/07/09 08:20:20;;;;;;;2.47;1.60;;;22.00;62.20;;;;;;5033243;28;20026;-75
2021/07/09 08:22:46;;;;;;;3.10;1.75;;;22.00;62.20;;;;;;5033394;28;20037;-75
2021/07/09 08:25:12;;;;;;;3.45;1.75;;;22.00;62.10;;;;;;5032760;28;20104;-76
2021/07/09 08:27:39;;;;;;;3.67;1.70;;;22.00;62.10;;;;;;5032992;28;20053;-75
2021/07/09 08:30:07;;;;;;;3.38;1.70;;;22.00;62.20;;;;;;5032777;28;20029;-75
2021/07/09 08:32:34;;;;;;;3.22;1.70;;;22.00;62.10;;;;;;5032618;28;20481;-76
2021/07/09 08:34:59;;;;;;;3.05;1.90;;;22.10;62.20;;;;;;5032668;28;20030;-75
2021/07/09 08:37:26;;;;;;;3.95;1.63;;;22.00;62.10;;;;;;5032742;28;20026;-76
2021/07/09 08:39:51;;;;;;;4.18;1.90;;;22.10;62.20;;;;;;5032534;28;20033;-75
2021/07/09 08:42:17;;;;;;;4.90;1.73;;;22.10;62.20;;;;;;5032880;28;20088;-75
2021/07/09 08:44:43;;;;;;;3.33;1.80;;;22.10;62.20;;;;;;5032771;28;20056;-75
2021/07/09 08:47:08;;;;;;;3.13;1.70;;;22.10;62.20;;;;;;5032891;28;20389;-76
2021/07/09 08:49:34;;;;;;;3.78;1.73;;;22.10;62.10;;;;;;5032826;28;20022;-75
2021/07/09 08:52:00;;;;;;;3.58;1.80;;;22.10;62.10;;;;;;5032693;28;20564;-76
2021/07/09 08:54:26;;;;;;;3.05;1.83;;;22.10;62.10;;;;;;5032607;28;20047;-75
2021/07/09 08:56:51;;;;;;;4.40;1.77;;;22.20;62.10;;;;;;5034252;28;20022;-76
2021/07/09 08:59:20;;;;;;;3.53;1.70;;;22.20;62.00;;;;;;5036702;28;20079;-75
2021/07/09 09:01:56;;;;;;;3.35;1.90;;;22.10;62.10;;;;;;5036450;28;20026;-75
2021/07/09 09:04:30;;;;;;;2.65;1.35;;;22.10;62.10;;;;;;5036425;28;20032;-74
2021/07/09 09:07:11;;;;;;;3.10;1.80;;;22.10;62.10;;;;;;5036595;28;20032;-75
2021/07/09 09:09:39;;;;;;;3.20;1.70;;;22.10;62.00;;;;;;5036483;28;20042;-75
2021/07/09 09:12:16;;;;;;;3.60;1.75;;;22.20;62.10;;;;;;5036560;28;20454;-74
2021/07/09 09:14:44;;;;;;;4.35;1.88;;;22.20;62.00;;;;;;5036622;28;20444;-74
2021/07/09 09:17:31;;;;;;;2.58;1.67;;;22.20;62.00;;;;;;5036526;28;20029;-75
2021/07/09 09:20:12;;;;;;;5.65;2.22;;;22.20;62.00;;;;;;5036336;28;20508;-74
2021/07/09 09:22:54;;;;;;;2.30;1.60;;;22.20;62.00;;;;;;5036560;28;20088;-75
2021/07/09 09:25:28;;;;;;;3.60;1.85;;;22.20;62.00;;;;;;5036197;28;20213;-74
2021/07/09 09:28:02;;;;;;;4.60;1.70;;;22.30;62.00;;;;;;5036144;28;20025;-75
2021/07/09 09:30:28;;;;;;;2.70;1.35;;;22.20;62.00;;;;;;5035958;28;20385;-75
2021/07/09 09:32:54;;;;;;;3.03;1.73;;;22.30;62.00;;;;;;5034511;28;20041;-75
2021/07/09 09:35:28;;;;;;;3.72;1.83;;;22.30;61.90;;;;;;5035836;28;20381;-75
2021/07/09 09:37:56;;;;;;;3.47;1.90;;;22.30;61.90;;;;;;5035886;28;20042;-75
2021/07/09 09:40:25;;;;;;;3.20;1.92;;;22.30;61.90;;;;;;5035788;28;20464;-74
2021/07/09 09:42:50;;;;;;;3.50;1.60;;;22.30;61.90;;;;;;5035914;28;20029;-74
2021/07/09 09:45:22;;;;;;;4.30;2.00;;;22.30;61.80;;;;;;5035700;28;20036;-74
2021/07/09 09:47:48;;;;;;;3.40;1.70;;;22.30;61.80;;;;;;5035711;28;20101;-74
2021/07/09 09:50:21;;;;;;;3.65;1.67;;;22.30;61.80;;;;;;5035699;28;20372;-75
2021/07/09 09:52:49;;;;;;;3.08;1.73;;;22.40;61.80;;;;;;5035824;28;20021;-74
2021/07/09 09:55:29;;;;;;;3.75;1.98;;;22.30;61.80;;;;;;5035546;28;20048;-74
2021/07/09 09:58:14;;;;;;;2.65;1.60;;;22.40;61.80;;;;;;5035975;28;20029;-75
2021/07/09 10:00:42;;;;;;;2.65;1.60;;;22.40;61.80;;;;;;5035879;28;20033;-74
2021/07/09 10:03:07;;;;;;;2.90;1.67;;;22.40;61.80;;;;;;5035505;28;20024;-74
2021/07/09 10:05:39;;;;;;;4.00;1.80;;;22.40;61.80;;;;;;5035422;28;20022;-74
2021/07/09 10:08:08;;;;;;;3.35;1.70;;;22.40;61.80;;;;;;5034388;28;20033;-74
2021/07/09 10:10:35;;;;;;;2.72;1.55;;;22.40;61.80;;;;;;5035368;28;20026;-74
2021/07/09 10:13:02;;;;;;;3.80;1.80;;;22.40;61.70;;;;;;5035569;28;20112;-74
2021/07/09 10:15:30;;;;;;;3.85;1.70;;;22.40;61.70;;;;;;5035245;28;20104;-75
2021/07/09 10:17:57;;;;;;;2.65;1.63;;;22.40;61.70;;;;;;5035231;28;20548;-75
2021/07/09 10:20:22;;;;;;;3.80;1.63;;;22.40;61.70;;;;;;5035254;28;20492;-74
2021/07/09 10:22:48;;;;;;;2.90;1.70;;;22.50;61.60;;;;;;5035431;28;20061;-75
2021/07/09 10:25:21;;;;;;;4.07;1.70;;;22.50;61.70;;;;;;5035266;28;20029;-75
2021/07/09 10:27:47;;;;;;;2.97;1.85;;;22.50;61.70;;;;;;5035236;28;20373;-74
2021/07/09 10:30:13;;;;;;;3.53;1.95;;;22.50;61.60;;;;;;5035164;28;20025;-74
2021/07/09 10:32:46;;;;;;;3.83;1.83;;;22.50;61.60;;;;;;5034835;28;20099;-74
2021/07/09 10:35:32;;;;;;;4.82;1.60;;;22.50;61.60;;;;;;5035070;28;20415;-75
2021/07/09 10:38:11;;;;;;;2.85;1.60;;;22.50;61.50;;;;;;5034822;28;20032;-75
2021/07/09 10:40:37;;;;;;;2.92;1.85;;;22.50;61.50;;;;;;5034979;28;20032;-75
2021/07/09 10:43:05;;;;;;;3.22;1.80;;;22.50;61.60;;;;;;5034638;28;20025;-75
2021/07/09 10:45:31;;;;;;;3.45;2.00;;;22.50;61.50;;;;;;5035001;28;20498;-74
2021/07/09 10:48:03;;;;;;;2.50;1.55;;;22.50;61.50;;;;;;5034813;28;20109;-75
2021/07/09 10:50:53;;;;;;;2.38;1.50;;;22.50;61.50;;;;;;5033417;28;20053;-74
2021/07/09 10:53:25;;;;;;;3.08;1.85;;;22.50;61.50;;;;;;5034945;28;20040;-75
2021/07/09 10:56:07;;;;;;;4.03;1.90;;;22.50;61.60;;;;;;5033533;28;20068;-74
2021/07/09 10:58:35;;;;;;;3.08;1.60;;;22.50;61.60;;;;;;5034621;28;20095;-75
2021/07/09 11:01:09;;;;;;;3.42;1.70;;;22.50;61.60;;;;;;5034505;28;20026;-75
2021/07/09 11:03:50;;;;;;;3.33;1.70;;;22.50;61.60;;;;;;5038217;28;20030;-75
2021/07/09 11:06:20;;;;;;;3.28;1.88;;;22.50;61.60;;;;;;5035202;28;20108;-75
2021/07/09 11:08:56;;;;;;;2.72;1.50;;;22.50;61.60;;;;;;5034518;28;20079;-75
2021/07/09 11:11:38;;;;;;;4.90;2.08;;;22.50;61.50;;;;;;5034404;28;20030;-75
2021/07/09 11:14:15;;;;;;;2.28;1.48;;;22.60;61.40;;;;;;5034237;28;20105;-75
2021/07/09 11:16:46;;;;;;;2.90;1.60;;;22.60;61.40;;;;;;5034274;28;20067;-75
2021/07/09 11:19:20;;;;;;;3.63;1.90;;;22.60;61.30;;;;;;5034000;28;20047;-75
2021/07/09 11:21:46;;;;;;;2.97;1.63;;;22.60;61.40;;;;;;5034148;28;20105;-75
2021/07/09 11:24:14;;;;;;;4.15;1.92;;;22.60;61.40;;;;;;5034074;28;20033;-75
2021/07/09 11:26:45;;;;;;;2.80;1.60;;;22.70;61.40;;;;;;5033957;28;20026;-75
2021/07/09 11:29:23;;;;;;;2.55;1.48;;;22.70;61.30;;;;;;5033925;28;20013;-75
2021/07/09 11:31:49;;;;;;;2.95;1.60;;;22.70;61.30;;;;;;5034047;28;20477;-75
2021/07/09 11:34:17;;;;;;;3.00;1.70;;;22.70;61.20;;;;;;5033784;28;20129;-75
2021/07/09 11:36:44;;;;;;;2.72;1.45;;;22.70;61.20;;;;;;5034009;28;20025;-75
2021/07/09 11:39:21;;;;;;;2.60;1.60;;;22.80;61.20;;;;;;5034056;28;20072;-75
2021/07/09 11:41:57;;;;;;;2.53;1.42;;;22.80;61.10;;;;;;5033750;28;20033;-75
2021/07/09 11:44:48;;;;;;;2.65;1.58;;;22.80;61.10;;;;;;5032545;28;20032;-76
2021/07/09 11:47:19;;;;;;;2.78;1.65;;;22.80;61.10;;;;;;5033737;28;20025;-75
2021/07/09 11:49:49;;;;;;;2.58;1.60;;;22.90;61.00;;;;;;5033812;28;20374;-75
2021/07/09 11:52:21;;;;;;;4.18;1.80;;;22.90;61.00;;;;;;5033300;28;20017;-75
2021/07/09 11:54:47;;;;;;;3.00;1.67;;;22.90;60.90;;;;;;5033652;28;20025;-75
2021/07/09 11:57:16;;;;;;;2.72;1.50;;;22.90;60.90;;;;;;5033811;28;20049;-75
2021/07/09 11:59:44;;;;;;;2.22;1.35;;;22.90;60.90;;;;;;5033765;28;20037;-75
2021/07/09 12:02:17;;;;;;;2.65;1.60;;;23.00;60.90;;;;;;5033682;28;20037;-75
2021/07/09 12:04:49;;;;;;;3.70;1.75;;;23.00;60.80;;;;;;5040303;28;20088;-75
2021/07/09 12:07:34;;;;;;;2.08;1.55;;;23.00;60.80;;;;;;5040657;28;20025;-75
2021/07/09 12:10:14;;;;;;;2.38;1.35;;;23.00;60.70;;;;;;5034482;28;20117;-76
2021/07/09 12:12:51;;;;;;;4.18;1.60;;;23.10;60.70;;;;;;5034779;28;20033;-75
2021/07/09 12:15:34;;;;;;;3.90;1.80;;;23.10;60.70;;;;;;5034087;28;20354;-75
2021/07/09 12:18:02;;;;;;;3.50;1.77;;;23.10;60.60;;;;;;5034107;28;20033;-75
2021/07/09 12:20:32;;;;;;;1.98;1.45;;;23.10;60.60;;;;;;5034733;28;20327;-76
2021/07/09 12:22:58;;;;;;;2.15;1.35;;;23.20;60.50;;;;;;5038432;28;20022;-77
2021/07/09 12:25:31;;;;;;;2.42;1.50;;;23.20;60.50;;;;;;5037175;28;20442;-76
2021/07/09 12:28:09;;;;;;;2.13;1.30;;;23.30;60.40;;;;;;5036918;28;20025;-76
2021/07/09 12:30:40;;;;;;;2.35;1.50;;;23.20;60.50;;;;;;5036473;28;20029;-76
2021/07/09 12:33:11;;;;;;;2.90;1.63;;;23.30;60.50;;;;;;5040072;28;20128;-76
2021/07/09 12:35:36;;;;;;;3.20;1.60;;;23.30;60.30;;;;;;5043544;28;20368;-77
2021/07/09 12:38:11;;;;;;;2.05;1.42;;;23.40;60.30;;;;;;5043330;28;20081;-75
2021/07/09 12:40:48;;;;;;;3.28;1.50;;;23.40;60.20;;;;;;5043535;28;20053;-77
2021/07/09 12:43:22;;;;;;;3.22;1.50;;;23.50;60.10;;;;;;5040220;28;20515;-74
2021/07/09 12:46:01;;;;;;;2.67;1.50;;;23.50;60.10;;;;;;5033272;28;20052;-74
2021/07/09 12:48:30;;;;;;;3.03;1.65;;;23.50;60.10;;;;;;5032988;28;20024;-76
2021/07/09 12:50:55;;;;;;;2.70;1.50;;;23.50;60.10;;;;;;5032918;28;20030;-74